createdAt,value
2019-06-08T00:01:51.076Z,64.60
2019-06-08T00:04:20.747Z,64.50
2019-06-08T00:07:13.139Z,64.50
2019-06-08T00:09:42.607Z,64.50
2019-06-08T00:12:12.948Z,64.60
2019-06-08T00:14:42.472Z,64.70
2019-06-08T00:17:29.371Z,64.80
2019-06-08T00:19:57.144Z,65.10
2019-06-08T00:22:26.686Z,65.30
2019-06-08T00:24:56.224Z,65.40
2019-06-08T00:27:27.385Z,65.50
2019-06-08T00:29:56.967Z,65.60
2019-06-08T00:32:26.556Z,65.90
2019-06-08T00:34:56.082Z,66.10
2019-06-08T00:37:25.639Z,66.40
2019-06-08T00:39:55.350Z,66.60
2019-06-08T00:42:25.529Z,67.00
2019-06-08T00:45:06.066Z,67.40
2019-06-08T00:47:47.154Z,67.60
2019-06-08T00:50:04.006Z,68.10
2019-06-08T00:52:35.148Z,68.30
2019-06-08T00:55:06.079Z,68.60
2019-06-08T00:57:35.762Z,69.00
2019-06-08T01:00:10.586Z,69.30
2019-06-08T01:02:42.428Z,69.70
2019-06-08T01:05:13.873Z,69.90
2019-06-08T01:07:44.200Z,70.30
2019-06-08T01:10:15.388Z,70.80
2019-06-08T01:12:46.725Z,70.90
2019-06-08T01:15:16.643Z,71.10
2019-06-08T01:18:01.595Z,71.20
2019-06-08T01:20:17.647Z,71.40
2019-06-08T01:22:47.097Z,71.70
2019-06-08T01:25:16.700Z,71.90
2019-06-08T01:27:47.865Z,72.00
2019-06-08T01:30:17.809Z,72.00
2019-06-08T01:32:48.699Z,72.10
2019-06-08T01:35:18.231Z,72.40
2019-06-08T01:37:47.706Z,72.60
2019-06-08T01:40:17.215Z,72.70
2019-06-08T01:42:46.787Z,72.90
2019-06-08T01:45:33.112Z,73.20
2019-06-08T01:48:19.976Z,73.30
2019-06-08T01:50:40.719Z,73.40
2019-06-08T01:53:10.260Z,73.70
2019-06-08T01:55:39.797Z,73.80
2019-06-08T01:58:09.298Z,73.80
2019-06-08T02:00:41.471Z,73.90
2019-06-08T02:03:11.609Z,74.10
2019-06-08T02:05:41.391Z,74.30
2019-06-08T02:08:10.926Z,74.50
2019-06-08T02:10:40.504Z,74.50
2019-06-08T02:13:10.041Z,74.60
2019-06-08T02:15:39.652Z,74.60
2019-06-08T02:18:09.225Z,74.60
2019-06-08T02:20:39.383Z,74.60
2019-06-08T02:23:08.961Z,74.80
2019-06-08T02:25:39.600Z,74.80
2019-06-08T02:28:09.261Z,74.80
2019-06-08T02:30:41.871Z,74.80
2019-06-08T02:33:11.651Z,74.80
2019-06-08T02:35:41.769Z,74.90
2019-06-08T02:38:11.553Z,74.90
2019-06-08T02:40:41.217Z,74.80
2019-06-08T02:43:10.850Z,74.80
2019-06-08T02:45:40.618Z,74.70
2019-06-08T02:48:15.559Z,74.70
2019-06-08T02:50:53.394Z,74.60
2019-06-08T02:53:24.095Z,74.80
2019-06-08T02:55:54.366Z,74.90
2019-06-08T02:58:24.239Z,75.10
2019-06-08T03:00:58.104Z,75.20
2019-06-08T03:03:29.572Z,75.40
2019-06-08T03:06:02.154Z,75.50
2019-06-08T03:08:36.149Z,75.60
2019-06-08T03:11:09.862Z,75.80
2019-06-08T03:13:42.426Z,75.90
2019-06-08T03:16:13.445Z,76.00
2019-06-08T03:18:42.978Z,76.20
2019-06-08T03:21:12.471Z,76.30
2019-06-08T03:23:50.834Z,76.40
2019-06-08T03:26:20.515Z,76.60
2019-06-08T03:29:28.683Z,76.70
2019-06-08T03:31:57.142Z,76.70
2019-06-08T03:34:27.988Z,76.90
2019-06-08T03:36:57.880Z,77.00
2019-06-08T03:39:27.587Z,77.20
2019-06-08T03:41:57.143Z,77.20
2019-06-08T03:44:26.627Z,77.30
2019-06-08T03:46:56.207Z,77.40
2019-06-08T03:49:41.434Z,77.40
2019-06-08T03:52:08.711Z,77.50
2019-06-08T03:54:40.154Z,77.60
2019-06-08T03:57:14.923Z,77.60
2019-06-08T03:59:46.160Z,77.70
2019-06-08T04:02:17.135Z,77.70
2019-06-08T04:04:52.963Z,77.90
2019-06-08T04:07:22.452Z,77.80
2019-06-08T04:09:52.927Z,77.90
2019-06-08T04:12:23.055Z,78.00
2019-06-08T04:15:06.379Z,78.00
2019-06-08T04:17:29.848Z,78.10
2019-06-08T04:20:10.570Z,78.20
2019-06-08T04:22:33.133Z,78.20
2019-06-08T04:25:14.610Z,78.20
2019-06-08T04:27:44.759Z,78.30
2019-06-08T04:30:22.701Z,78.30
2019-06-08T04:32:59.972Z,78.30
2019-06-08T04:35:31.122Z,78.30
2019-06-08T04:38:00.622Z,78.30
2019-06-08T04:40:33.277Z,78.20
2019-06-08T04:43:03.883Z,78.30
2019-06-08T04:45:33.414Z,78.30
2019-06-08T04:48:03.206Z,78.20
2019-06-08T04:50:32.677Z,78.30
2019-06-08T04:53:10.730Z,78.20
2019-06-08T04:55:40.963Z,78.10
2019-06-08T04:58:12.019Z,78.10
2019-06-08T05:00:43.375Z,78.00
2019-06-08T05:03:18.487Z,77.90
2019-06-08T05:05:49.933Z,78.00
2019-06-08T05:08:18.958Z,78.10
2019-06-08T05:10:49.724Z,78.00
2019-06-08T05:13:19.310Z,77.90
2019-06-08T05:15:50.260Z,77.90
2019-06-08T05:18:19.895Z,77.90
2019-06-08T05:20:51.159Z,77.90
2019-06-08T05:23:20.304Z,77.90
2019-06-08T05:25:49.675Z,77.60
2019-06-08T05:28:19.052Z,77.60
2019-06-08T05:30:49.626Z,77.40
2019-06-08T05:33:19.055Z,77.20
2019-06-08T05:35:49.711Z,77.00
2019-06-08T05:38:20.860Z,76.80
2019-06-08T05:40:50.382Z,76.40
2019-06-08T05:43:21.108Z,76.10
2019-06-08T05:45:50.477Z,75.80
2019-06-08T05:48:19.821Z,75.60
2019-06-08T05:51:00.203Z,75.60
2019-06-08T05:53:20.225Z,75.30
2019-06-08T05:55:50.111Z,74.90
2019-06-08T05:58:21.038Z,74.50
2019-06-08T06:00:51.088Z,73.90
2019-06-08T06:03:20.519Z,73.50
2019-06-08T06:05:50.828Z,73.20
2019-06-08T06:08:21.592Z,73.10
2019-06-08T06:10:51.429Z,73.50
2019-06-08T06:13:20.884Z,72.50
2019-06-08T06:15:51.711Z,72.10
2019-06-08T06:18:21.241Z,71.30
2019-06-08T06:23:47.277Z,70.90
2019-06-08T06:26:16.754Z,70.40
2019-06-08T06:28:49.593Z,70.00
2019-06-08T06:31:19.478Z,70.00
2019-06-08T06:33:50.062Z,69.00
2019-06-08T06:36:19.644Z,68.60
2019-06-08T06:38:50.162Z,67.50
2019-06-08T06:41:20.708Z,67.20
2019-06-08T06:43:50.430Z,66.90
2019-06-08T06:46:19.908Z,66.60
2019-06-08T06:48:50.393Z,66.00
2019-06-08T06:51:26.059Z,65.20
2019-06-08T06:53:51.239Z,65.00
2019-06-08T06:56:20.619Z,64.60
2019-06-08T06:58:50.010Z,63.40
2019-06-08T07:01:19.533Z,63.20
2019-06-08T07:03:50.106Z,63.10
2019-06-08T07:06:19.561Z,62.80
2019-06-08T07:08:50.246Z,62.60
2019-06-08T07:11:19.730Z,62.60
2019-06-08T07:13:49.153Z,62.50
2019-06-08T07:16:19.445Z,62.30
2019-06-08T07:18:50.231Z,62.10
2019-06-08T07:21:19.687Z,62.10
2019-06-08T07:23:51.175Z,62.00
2019-06-08T07:26:20.908Z,61.60
2019-06-08T07:28:52.421Z,61.50
2019-06-08T07:31:22.975Z,61.50
2019-06-08T07:33:53.614Z,61.30
2019-06-08T07:36:23.323Z,60.90
2019-06-08T07:38:53.414Z,60.30
2019-06-08T07:41:25.595Z,59.00
2019-06-08T07:43:56.771Z,59.20
2019-06-08T07:46:26.206Z,58.80
2019-06-08T07:48:56.568Z,58.50
2019-06-08T07:51:27.097Z,58.30
2019-06-08T07:53:56.516Z,58.20
2019-06-08T07:56:25.868Z,57.70
2019-06-08T07:58:55.472Z,57.70
2019-06-08T08:01:35.835Z,57.40
2019-06-08T08:03:56.619Z,56.90
2019-06-08T08:06:26.038Z,56.60
2019-06-08T08:08:56.736Z,56.60
2019-06-08T08:11:26.285Z,56.30
2019-06-08T08:13:57.109Z,55.40
2019-06-08T08:16:26.960Z,55.10
2019-06-08T08:18:57.516Z,54.00
2019-06-08T08:21:29.416Z,53.60
2019-06-08T08:24:00.172Z,53.10
2019-06-08T08:26:31.270Z,53.70
2019-06-08T08:29:03.582Z,52.60
2019-06-08T08:31:33.081Z,52.50
2019-06-08T08:34:05.737Z,51.40
2019-06-08T08:36:33.854Z,51.50
2019-06-08T08:39:03.712Z,51.90
2019-06-08T08:41:33.170Z,51.90
2019-06-08T08:44:04.850Z,50.60
2019-06-08T08:46:42.631Z,50.60
2019-06-08T08:49:13.655Z,49.00
2019-06-08T08:51:43.142Z,49.50
2019-06-08T08:54:12.635Z,49.90
2019-06-08T08:56:42.117Z,47.40
2019-06-08T08:59:12.717Z,46.80
2019-06-08T09:01:42.788Z,47.10
2019-06-08T09:04:12.228Z,47.80
2019-06-08T09:06:41.689Z,46.70
2019-06-08T09:09:11.260Z,47.20
2019-06-08T09:11:41.201Z,47.10
2019-06-08T09:14:13.995Z,44.60
2019-06-08T09:16:43.229Z,43.10
2019-06-08T09:19:13.401Z,44.10
2019-06-08T09:21:42.876Z,44.70
2019-06-08T09:24:13.070Z,43.40
2019-06-08T09:26:42.710Z,43.50
2019-06-08T09:29:12.181Z,43.40
2019-06-08T09:31:41.635Z,42.30
2019-06-08T09:34:15.536Z,42.90
2019-06-08T09:36:47.843Z,41.40
2019-06-08T09:39:31.712Z,40.90
2019-06-08T09:42:08.800Z,41.50
2019-06-08T09:44:37.767Z,42.30
2019-06-08T09:47:12.390Z,42.40
2019-06-08T09:49:39.122Z,41.50
2019-06-08T09:52:09.068Z,41.20
2019-06-08T09:54:48.148Z,39.20
2019-06-08T09:57:19.423Z,39.40
2019-06-08T10:05:27.699Z,36.80
2019-06-08T10:08:00.545Z,37.60
2019-06-08T10:10:40.736Z,36.20
2019-06-08T10:13:18.677Z,37.50
2019-06-08T10:15:51.484Z,37.70
2019-06-08T10:21:32.594Z,37.20
2019-06-08T10:24:15.782Z,38.20
2019-06-08T10:26:47.641Z,38.80
2019-06-08T10:29:18.486Z,39.10
2019-06-08T10:31:48.331Z,38.40
2019-06-08T10:34:17.888Z,38.40
2019-06-08T10:36:47.314Z,38.80
2019-06-08T10:39:16.926Z,37.50
2019-06-08T10:41:51.254Z,37.80
2019-06-08T10:44:18.489Z,38.30
2019-06-08T10:46:48.332Z,38.90
2019-06-08T10:49:21.903Z,39.60
2019-06-08T10:51:51.309Z,37.80
2019-06-08T10:54:22.399Z,37.60
2019-06-08T10:56:54.199Z,37.90
2019-06-08T10:59:23.661Z,37.50
2019-06-08T11:01:54.072Z,37.50
2019-06-08T11:04:23.627Z,36.10
2019-06-08T11:06:53.124Z,36.70
2019-06-08T11:09:22.665Z,37.00
2019-06-08T11:14:14.676Z,37.10
2019-06-08T11:16:44.150Z,38.70
2019-06-08T11:19:14.207Z,38.70
2019-06-08T11:21:43.813Z,36.90
2019-06-08T11:24:23.801Z,36.00
2019-06-08T11:26:44.300Z,36.40
2019-06-08T11:29:18.745Z,37.20
2019-06-08T11:31:47.988Z,36.50
2019-06-08T11:34:18.606Z,37.00
2019-06-08T11:36:51.476Z,35.30
2019-06-08T11:39:19.835Z,36.20
2019-06-08T11:41:49.338Z,35.40
2019-06-08T11:44:18.789Z,35.50
2019-06-08T11:46:48.382Z,33.90
2019-06-08T11:49:18.733Z,34.00
2019-06-08T11:51:52.561Z,36.50
2019-06-08T11:54:34.468Z,35.60
2019-06-08T11:56:54.339Z,32.50
2019-06-08T11:59:24.991Z,33.00
2019-06-08T12:01:54.524Z,32.70
2019-06-08T12:04:23.938Z,32.90
2019-06-08T12:06:53.430Z,33.30
2019-06-08T12:09:23.027Z,31.90
2019-06-08T12:11:52.425Z,31.70
2019-06-08T12:14:21.808Z,33.00
2019-06-08T12:16:51.257Z,33.20
2019-06-08T12:19:21.028Z,33.90
2019-06-08T12:21:50.525Z,34.00
2019-06-08T12:24:21.350Z,34.70
2019-06-08T12:26:58.704Z,36.40
2019-06-08T12:29:28.224Z,35.80
2019-06-08T12:32:00.085Z,35.00
2019-06-08T12:34:28.266Z,33.80
2019-06-08T12:36:58.287Z,34.00
2019-06-08T12:39:28.240Z,33.80
2019-06-08T12:41:58.321Z,34.60
2019-06-08T12:44:29.147Z,34.30
2019-06-08T12:46:58.812Z,34.60
2019-06-08T12:49:28.342Z,35.10
2019-06-08T12:51:58.354Z,35.30
2019-06-08T12:54:29.368Z,34.10
2019-06-08T12:57:00.839Z,33.70
2019-06-08T12:59:30.010Z,32.40
2019-06-08T13:01:59.646Z,32.70
2019-06-08T13:10:04.753Z,31.20
2019-06-08T13:12:40.340Z,32.20
2019-06-08T13:15:08.487Z,33.90
2019-06-08T13:17:38.996Z,33.50
2019-06-08T13:20:12.435Z,34.10
2019-06-08T13:22:44.531Z,33.00
2019-06-08T13:25:28.758Z,32.70
2019-06-08T13:27:47.787Z,31.80
2019-06-08T13:30:22.504Z,29.50
2019-06-08T13:32:48.991Z,29.80
2019-06-08T13:35:20.717Z,29.80
2019-06-08T13:37:49.680Z,29.60
2019-06-08T13:40:23.242Z,30.40
2019-06-08T13:42:51.422Z,31.90
2019-06-08T13:45:23.136Z,31.00
2019-06-08T13:47:51.928Z,31.10
2019-06-08T13:50:22.795Z,30.90
2019-06-08T13:52:52.543Z,30.90
2019-06-08T13:55:42.311Z,31.40
2019-06-08T13:57:53.069Z,30.40
2019-06-08T14:00:25.561Z,30.50
2019-06-08T14:02:55.122Z,30.10
2019-06-08T14:05:31.051Z,29.50
2019-06-08T14:08:00.601Z,29.60
2019-06-08T14:10:39.100Z,30.00
2019-06-08T14:13:09.386Z,29.50
2019-06-08T14:15:38.988Z,29.70
2019-06-08T14:18:08.954Z,30.40
2019-06-08T14:20:38.896Z,30.50
2019-06-08T14:23:09.214Z,29.70
2019-06-08T14:25:50.686Z,30.70
2019-06-08T14:28:09.810Z,31.00
2019-06-08T14:30:39.336Z,29.70
2019-06-08T14:33:08.835Z,29.50
2019-06-08T14:35:38.325Z,29.90
2019-06-08T14:38:07.816Z,28.30
2019-06-08T14:40:37.553Z,28.40
2019-06-08T14:43:10.456Z,29.60
2019-06-08T14:45:38.377Z,28.60
2019-06-08T14:48:07.822Z,28.60
2019-06-08T14:50:40.346Z,28.20
2019-06-08T14:53:08.780Z,29.10
2019-06-08T14:55:38.821Z,29.40
2019-06-08T14:58:08.598Z,29.70
2019-06-08T15:00:38.461Z,29.60
2019-06-08T15:03:07.986Z,29.30
2019-06-08T15:05:37.434Z,28.80
2019-06-08T15:08:08.359Z,28.20
2019-06-08T15:10:38.515Z,26.90
2019-06-08T15:13:08.328Z,27.10
2019-06-08T15:15:38.275Z,27.10
2019-06-08T15:18:10.869Z,27.50
2019-06-08T15:20:38.892Z,26.60
2019-06-08T15:23:08.507Z,26.50
2019-06-08T15:25:38.656Z,26.10
2019-06-08T15:28:08.451Z,25.80
2019-06-08T15:30:38.821Z,26.50
2019-06-08T15:33:08.201Z,27.60
2019-06-08T15:35:37.858Z,27.00
2019-06-08T15:38:08.327Z,27.40
2019-06-08T15:40:38.998Z,27.60
2019-06-08T15:43:08.784Z,27.10
2019-06-08T15:45:38.387Z,27.10
2019-06-08T15:48:08.140Z,27.00
2019-06-08T15:50:38.790Z,26.50
2019-06-08T15:53:08.577Z,26.60
2019-06-08T15:55:38.435Z,26.00
2019-06-08T15:58:08.963Z,26.60
2019-06-08T16:00:38.711Z,26.20
2019-06-08T16:03:08.173Z,26.50
2019-06-08T16:05:38.345Z,26.70
2019-06-08T16:08:07.754Z,26.60
2019-06-08T16:10:37.115Z,25.90
2019-06-08T16:13:06.491Z,25.60
2019-06-08T16:15:35.849Z,26.00
2019-06-08T16:18:05.276Z,26.80
2019-06-08T16:20:35.776Z,27.10
2019-06-08T16:23:05.255Z,27.50
2019-06-08T16:25:38.376Z,27.40
2019-06-08T16:28:05.704Z,27.30
2019-06-08T16:30:35.135Z,26.80
2019-06-08T16:33:04.640Z,26.60
2019-06-08T16:35:34.091Z,26.50
2019-06-08T16:38:03.517Z,26.80
2019-06-08T16:40:34.252Z,27.20
2019-06-08T16:43:03.808Z,27.30
2019-06-08T16:45:33.275Z,27.20
2019-06-08T16:48:02.710Z,26.90
2019-06-08T16:50:32.284Z,26.70
2019-06-08T16:53:01.680Z,27.20
2019-06-08T16:55:32.085Z,27.80
2019-06-08T16:58:01.754Z,27.90
2019-06-08T17:00:35.275Z,28.10
2019-06-08T17:03:02.789Z,28.10
2019-06-08T17:05:33.175Z,28.40
2019-06-08T17:08:03.809Z,28.80
2019-06-08T17:10:34.549Z,28.90
2019-06-08T17:13:05.440Z,28.60
2019-06-08T17:15:36.227Z,28.70
2019-06-08T17:18:05.661Z,29.10
2019-06-08T17:20:36.305Z,29.20
2019-06-08T17:23:05.723Z,29.60
2019-06-08T17:25:36.488Z,29.70
2019-06-08T17:28:07.863Z,30.00
2019-06-08T17:30:39.368Z,30.20
2019-06-08T17:33:09.111Z,30.60
2019-06-08T17:35:39.791Z,31.10
2019-06-08T17:38:09.454Z,31.40
2019-06-08T17:40:40.046Z,32.00
2019-06-08T17:43:09.531Z,32.40
2019-06-08T17:45:39.125Z,34.20
2019-06-08T17:48:09.864Z,35.60
2019-06-08T17:50:40.807Z,36.40
2019-06-08T17:53:10.291Z,37.60
2019-06-08T17:55:39.745Z,38.00
2019-06-08T17:58:09.334Z,38.50
2019-06-08T18:00:39.497Z,39.00
2019-06-08T18:03:09.102Z,39.50
2019-06-08T18:05:42.433Z,39.90
2019-06-08T18:08:11.008Z,40.20
2019-06-08T18:10:41.804Z,40.40
2019-06-08T18:13:11.548Z,40.40
2019-06-08T18:15:43.099Z,40.60
2019-06-08T18:18:12.318Z,40.90
2019-06-08T18:20:42.435Z,41.30
2019-06-08T18:23:12.900Z,41.50
2019-06-08T18:25:43.432Z,41.50
2019-06-08T18:28:13.693Z,41.70
2019-06-08T18:30:44.761Z,42.10
2019-06-08T18:33:14.317Z,42.40
2019-06-08T18:35:44.887Z,42.70
2019-06-08T18:38:17.926Z,43.00
2019-06-08T18:40:48.340Z,43.40
2019-06-08T18:43:17.964Z,43.90
2019-06-08T18:45:49.597Z,44.10
2019-06-08T18:48:19.038Z,44.50
2019-06-08T18:50:49.130Z,44.70
2019-06-08T18:53:19.074Z,45.20
2019-06-08T18:55:50.346Z,45.60
2019-06-08T18:58:24.794Z,45.80
2019-06-08T19:00:51.581Z,46.00
2019-06-08T19:03:21.218Z,46.10
2019-06-08T19:05:52.154Z,46.10
2019-06-08T19:08:22.059Z,46.50
2019-06-08T19:10:51.451Z,46.70
2019-06-08T19:13:22.083Z,47.00
2019-06-08T19:15:53.004Z,47.10
2019-06-08T19:18:22.556Z,47.40
2019-06-08T19:20:53.586Z,47.60
2019-06-08T19:23:23.144Z,47.90
2019-06-08T19:25:52.583Z,48.00
2019-06-08T19:28:35.330Z,48.20
2019-06-08T19:30:54.175Z,48.40
2019-06-08T19:33:23.603Z,48.50
2019-06-08T19:35:54.154Z,48.50
2019-06-08T19:38:23.763Z,48.70
2019-06-08T19:40:53.171Z,48.80
2019-06-08T19:43:22.508Z,49.10
2019-06-08T19:45:52.204Z,49.10
2019-06-08T19:48:21.712Z,49.10
2019-06-08T19:50:54.214Z,49.10
2019-06-08T19:53:22.710Z,49.10
2019-06-08T19:55:53.907Z,49.00
2019-06-08T19:58:23.163Z,49.00
2019-06-08T20:00:54.841Z,49.00
2019-06-08T20:03:24.098Z,49.00
2019-06-08T20:05:53.645Z,49.00
2019-06-08T20:08:23.098Z,49.00
2019-06-08T20:10:53.606Z,49.20
2019-06-08T20:13:24.274Z,49.30
2019-06-08T20:15:58.347Z,48.90
2019-06-08T20:18:27.787Z,49.40
2019-06-08T20:20:58.597Z,49.40
2019-06-08T20:23:27.649Z,49.40
2019-06-08T20:26:00.420Z,49.50
2019-06-08T20:28:28.413Z,49.50
2019-06-08T20:31:00.030Z,49.60
2019-06-08T20:33:29.443Z,49.70
2019-06-08T20:35:58.864Z,49.80
2019-06-08T20:38:37.266Z,49.90
2019-06-08T20:41:00.238Z,50.40
2019-06-08T20:43:29.659Z,51.20
2019-06-08T20:45:59.093Z,50.90
2019-06-08T20:48:28.467Z,51.10
2019-06-08T20:50:57.833Z,51.20
2019-06-08T20:53:28.722Z,51.50
2019-06-08T20:55:58.132Z,51.60
2019-06-08T20:58:30.139Z,51.80
2019-06-08T21:00:59.524Z,52.00
2019-06-08T21:03:29.674Z,51.90
2019-06-08T21:06:00.329Z,51.90
2019-06-08T21:08:37.175Z,52.00
2019-06-08T21:11:08.502Z,52.20
2019-06-08T21:13:40.862Z,52.40
2019-06-08T21:16:11.391Z,52.60
2019-06-08T21:18:40.744Z,52.90
2019-06-08T21:21:10.122Z,53.00
2019-06-08T21:23:39.466Z,53.50
2019-06-08T21:26:08.829Z,53.00
2019-06-08T21:28:39.928Z,53.10
2019-06-08T21:31:09.266Z,53.20
2019-06-08T21:33:42.435Z,53.40
2019-06-08T21:36:11.784Z,53.70
2019-06-08T21:38:41.145Z,53.80
2019-06-08T21:41:13.553Z,54.00
2019-06-08T21:43:42.975Z,54.00
2019-06-08T21:46:12.418Z,54.00
2019-06-08T21:48:41.860Z,54.20
2019-06-08T21:51:11.211Z,54.40
2019-06-08T21:53:40.688Z,54.60
2019-06-08T21:56:10.036Z,54.90
2019-06-08T21:58:40.869Z,55.00
2019-06-08T22:01:13.055Z,55.00
2019-06-08T22:03:42.507Z,54.80
2019-06-08T22:06:11.995Z,55.30
2019-06-08T22:08:41.467Z,55.50
2019-06-08T22:11:12.738Z,55.60
2019-06-08T22:13:42.138Z,55.70
2019-06-08T22:16:11.665Z,55.90
2019-06-08T22:18:41.073Z,56.00
2019-06-08T22:21:11.783Z,56.10
2019-06-08T22:23:41.198Z,56.10
2019-06-08T22:26:10.560Z,56.20
2019-06-08T22:28:39.912Z,56.30
2019-06-08T22:31:11.758Z,56.40
2019-06-08T22:33:41.106Z,56.50
2019-06-08T22:36:10.556Z,56.70
2019-06-08T22:38:39.982Z,56.80
2019-06-08T22:41:09.444Z,56.90
2019-06-08T22:43:38.911Z,57.00
2019-06-08T22:46:09.731Z,57.20
2019-06-08T22:48:39.065Z,57.40
2019-06-08T22:51:08.432Z,57.60
2019-06-08T22:53:38.410Z,57.80
2019-06-08T22:56:09.603Z,58.00
2019-06-08T22:58:39.085Z,58.10
2019-06-08T23:01:11.445Z,58.40
2019-06-08T23:03:39.510Z,58.60
2019-06-08T23:06:09.037Z,58.70
2019-06-08T23:08:38.475Z,58.90
2019-06-08T23:11:08.660Z,59.00
2019-06-08T23:13:39.463Z,59.20
2019-06-08T23:16:10.361Z,59.50
2019-06-08T23:18:39.795Z,59.60
2019-06-08T23:21:09.253Z,59.60
2019-06-08T23:23:38.771Z,59.90
2019-06-08T23:26:10.458Z,60.20
2019-06-08T23:28:39.261Z,60.40
2019-06-08T23:31:19.721Z,60.20
2019-06-08T23:33:40.302Z,60.40
2019-06-08T23:36:39.214Z,60.50
2019-06-08T23:38:40.804Z,60.60
2019-06-08T23:41:10.225Z,60.60
2019-06-08T23:43:39.649Z,60.90
2019-06-08T23:46:09.066Z,60.90
2019-06-08T23:48:38.550Z,61.00
2019-06-08T23:51:10.850Z,61.10
2019-06-08T23:53:38.998Z,61.00
2019-06-08T23:56:11.761Z,61.10
2019-06-08T23:58:42.412Z,61.20
